sensor_id;sensor_type;location;lat;lon;timestamp;pressure;altitude;pressure_sealevel;temperature;humidity
75438;BME280;64015;49.392;15.582;2022-10-16T00:00:27;95856.97;;;12.47;100.00
75438;BME280;64015;49.392;15.582;2022-10-16T00:03:13;95849.63;;;12.39;100.00
75438;BME280;64015;49.392;15.582;2022-10-16T00:05:41;95853.06;;;12.40;100.00
75438;BME280;64015;49.392;15.582;2022-10-16T00:08:07;95847.06;;;12.29;100.00
75438;BME280;64015;49.392;15.582;2022-10-16T00:10:34;95849.22;;;12.22;100.00
75438;BME280;64015;49.392;15.582;2022-10-16T00:12:59;95846.59;;;12.22;100.00
75438;BME280;64015;49.392;15.582;2022-10-16T00:15:25;95849.50;;;12.15;100.00
75438;BME280;64015;49.392;15.582;2022-10-16T00:17:51;95854.50;;;12.22;100.00
75438;BME280;64015;49.392;15.582;2022-10-16T00:20:16;95852.16;;;12.15;100.00
75438;BME280;64015;49.392;15.582;2022-10-16T00:22:42;95853.19;;;12.19;100.00
75438;BME280;64015;49.392;15.582;2022-10-16T00:25:11;95847.16;;;12.14;100.00
75438;BME280;64015;49.392;15.582;2022-10-16T00:27:36;95851.41;;;12.10;100.00
75438;BME280;64015;49.392;15.582;2022-10-16T00:30:02;95843.22;;;12.06;100.00
75438;BME280;64015;49.392;15.582;2022-10-16T00:32:28;95848.81;;;12.05;100.00
75438;BME280;64015;49.392;15.582;2022-10-16T00:34:54;95845.66;;;12.03;100.00
75438;BME280;64015;49.392;15.582;2022-10-16T00:37:20;95846.72;;;12.02;100.00
75438;BME280;64015;49.392;15.582;2022-10-16T00:39:46;95845.06;;;12.11;100.00
75438;BME280;64015;49.392;15.582;2022-10-16T00:42:16;95836.03;;;12.17;100.00
75438;BME280;64015;49.392;15.582;2022-10-16T00:47:26;95851.16;;;12.06;100.00
75438;BME280;64015;49.392;15.582;2022-10-16T00:50:11;95859.13;;;12.01;100.00
75438;BME280;64015;49.392;15.582;2022-10-16T00:52:41;95862.56;;;12.02;100.00
75438;BME280;64015;49.392;15.582;2022-10-16T00:55:09;95855.94;;;12.04;100.00
75438;BME280;64015;49.392;15.582;2022-10-16T00:57:35;95851.69;;;12.08;100.00
75438;BME280;64015;49.392;15.582;2022-10-16T01:00:04;95851.94;;;12.07;100.00
75438;BME280;64015;49.392;15.582;2022-10-16T01:02:30;95854.09;;;12.05;100.00
75438;BME280;64015;49.392;15.582;2022-10-16T01:04:56;95853.31;;;12.04;100.00
75438;BME280;64015;49.392;15.582;2022-10-16T01:07:41;95850.94;;;12.03;100.00
75438;BME280;64015;49.392;15.582;2022-10-16T01:13:05;95863.63;;;12.01;100.00
75438;BME280;64015;49.392;15.582;2022-10-16T01:18:37;95848.31;;;11.98;100.00
75438;BME280;64015;49.392;15.582;2022-10-16T01:21:08;95843.59;;;11.94;100.00
75438;BME280;64015;49.392;15.582;2022-10-16T01:24:00;95846.72;;;11.96;100.00
75438;BME280;64015;49.392;15.582;2022-10-16T01:26:43;95849.66;;;11.95;100.00
75438;BME280;64015;49.392;15.582;2022-10-16T01:29:18;95857.88;;;11.88;100.00
75438;BME280;64015;49.392;15.582;2022-10-16T01:31:49;95856.03;;;11.89;100.00
75438;BME280;64015;49.392;15.582;2022-10-16T01:34:22;95865.81;;;11.88;100.00
75438;BME280;64015;49.392;15.582;2022-10-16T01:36:52;95873.25;;;11.81;100.00
75438;BME280;64015;49.392;15.582;2022-10-16T01:39:24;95872.97;;;11.83;100.00
75438;BME280;64015;49.392;15.582;2022-10-16T01:42:00;95879.00;;;11.93;100.00
75438;BME280;64015;49.392;15.582;2022-10-16T01:44:31;95877.63;;;12.01;100.00
75438;BME280;64015;49.392;15.582;2022-10-16T01:46:59;95884.25;;;11.99;100.00
75438;BME280;64015;49.392;15.582;2022-10-16T01:49:27;95887.38;;;12.06;100.00
75438;BME280;64015;49.392;15.582;2022-10-16T01:51:56;95884.47;;;12.07;100.00
75438;BME280;64015;49.392;15.582;2022-10-16T01:54:26;95873.09;;;12.07;100.00
75438;BME280;64015;49.392;15.582;2022-10-16T01:56:53;95888.91;;;12.17;100.00
75438;BME280;64015;49.392;15.582;2022-10-16T01:59:21;95886.75;;;12.24;100.00
75438;BME280;64015;49.392;15.582;2022-10-16T02:01:54;95887.78;;;12.28;100.00
75438;BME280;64015;49.392;15.582;2022-10-16T02:04:29;95886.78;;;12.19;100.00
75438;BME280;64015;49.392;15.582;2022-10-16T02:06:56;95891.75;;;12.30;100.00
75438;BME280;64015;49.392;15.582;2022-10-16T02:09:21;95890.16;;;12.29;100.00
75438;BME280;64015;49.392;15.582;2022-10-16T02:11:47;95893.34;;;12.26;100.00
75438;BME280;64015;49.392;15.582;2022-10-16T02:14:14;95896.03;;;12.21;100.00
75438;BME280;64015;49.392;15.582;2022-10-16T02:16:43;95899.75;;;12.20;100.00
75438;BME280;64015;49.392;15.582;2022-10-16T02:19:09;95901.59;;;12.20;100.00
75438;BME280;64015;49.392;15.582;2022-10-16T02:21:43;95907.69;;;12.20;100.00
75438;BME280;64015;49.392;15.582;2022-10-16T02:26:43;95914.28;;;12.18;100.00
75438;BME280;64015;49.392;15.582;2022-10-16T02:29:13;95919.63;;;12.13;100.00
75438;BME280;64015;49.392;15.582;2022-10-16T02:31:45;95912.19;;;12.15;100.00
75438;BME280;64015;49.392;15.582;2022-10-16T02:34:15;95920.94;;;12.10;100.00
75438;BME280;64015;49.392;15.582;2022-10-16T02:36:42;95911.69;;;12.08;100.00
75438;BME280;64015;49.392;15.582;2022-10-16T02:39:09;95911.16;;;12.11;100.00
75438;BME280;64015;49.392;15.582;2022-10-16T02:41:36;95915.88;;;12.19;100.00
75438;BME280;64015;49.392;15.582;2022-10-16T02:44:01;95913.03;;;12.10;100.00
75438;BME280;64015;49.392;15.582;2022-10-16T02:46:27;95916.41;;;12.21;100.00
75438;BME280;64015;49.392;15.582;2022-10-16T02:48:52;95909.00;;;12.23;100.00
75438;BME280;64015;49.392;15.582;2022-10-16T02:51:18;95914.56;;;12.16;100.00
75438;BME280;64015;49.392;15.582;2022-10-16T02:53:43;95914.56;;;12.16;100.00
75438;BME280;64015;49.392;15.582;2022-10-16T02:56:09;95907.47;;;12.12;100.00
75438;BME280;64015;49.392;15.582;2022-10-16T02:58:34;95902.97;;;12.07;100.00
75438;BME280;64015;49.392;15.582;2022-10-16T03:01:02;95911.22;;;12.01;100.00
75438;BME280;64015;49.392;15.582;2022-10-16T03:03:27;95915.44;;;11.96;100.00
75438;BME280;64015;49.392;15.582;2022-10-16T03:05:53;95919.38;;;12.09;100.00
75438;BME280;64015;49.392;15.582;2022-10-16T03:08:18;95924.91;;;12.13;100.00
75438;BME280;64015;49.392;15.582;2022-10-16T03:10:49;95915.13;;;12.08;100.00
75438;BME280;64015;49.392;15.582;2022-10-16T03:13:14;95921.22;;;12.09;100.00
75438;BME280;64015;49.392;15.582;2022-10-16T03:15:40;95926.25;;;12.05;100.00
75438;BME280;64015;49.392;15.582;2022-10-16T03:18:05;95930.78;;;12.00;100.00
75438;BME280;64015;49.392;15.582;2022-10-16T03:20:31;95930.53;;;11.96;100.00
75438;BME280;64015;49.392;15.582;2022-10-16T03:22:56;95920.72;;;12.02;100.00
75438;BME280;64015;49.392;15.582;2022-10-16T03:25:22;95917.03;;;11.98;100.00
75438;BME280;64015;49.392;15.582;2022-10-16T03:27:47;95917.03;;;11.98;100.00
75438;BME280;64015;49.392;15.582;2022-10-16T03:30:13;95912.81;;;12.02;100.00
75438;BME280;64015;49.392;15.582;2022-10-16T03:32:38;95923.91;;;11.99;100.00
75438;BME280;64015;49.392;15.582;2022-10-16T03:35:04;95928.19;;;11.94;100.00
75438;BME280;64015;49.392;15.582;2022-10-16T03:37:30;95925.00;;;11.92;100.00
75438;BME280;64015;49.392;15.582;2022-10-16T03:39:55;95937.16;;;11.93;100.00
75438;BME280;64015;49.392;15.582;2022-10-16T03:42:21;95944.53;;;11.96;100.00
75438;BME280;64015;49.392;15.582;2022-10-16T03:44:46;95943.44;;;12.08;100.00
75438;BME280;64015;49.392;15.582;2022-10-16T03:47:12;95953.22;;;12.07;100.00
75438;BME280;64015;49.392;15.582;2022-10-16T03:49:37;95950.56;;;12.07;100.00
75438;BME280;64015;49.392;15.582;2022-10-16T03:52:03;95952.16;;;12.13;100.00
75438;BME280;64015;49.392;15.582;2022-10-16T03:54:28;95940.25;;;12.06;100.00
75438;BME280;64015;49.392;15.582;2022-10-16T03:56:54;95945.53;;;12.06;100.00
75438;BME280;64015;49.392;15.582;2022-10-16T03:59:19;95945.53;;;12.06;100.00
75438;BME280;64015;49.392;15.582;2022-10-16T04:01:45;95941.63;;;12.03;100.00
75438;BME280;64015;49.392;15.582;2022-10-16T04:04:10;95945.00;;;12.14;100.00
75438;BME280;64015;49.392;15.582;2022-10-16T04:06:36;95958.47;;;12.17;100.00
75438;BME280;64015;49.392;15.582;2022-10-16T04:09:01;95951.88;;;12.10;100.00
75438;BME280;64015;49.392;15.582;2022-10-16T04:11:27;95947.94;;;12.07;100.00
75438;BME280;64015;49.392;15.582;2022-10-16T04:13:53;95946.38;;;12.01;100.00
75438;BME280;64015;49.392;15.582;2022-10-16T04:16:18;95935.72;;;12.16;100.00
75438;BME280;64015;49.392;15.582;2022-10-16T04:18:44;95933.34;;;12.15;100.00
75438;BME280;64015;49.392;15.582;2022-10-16T04:21:09;95938.41;;;12.11;100.00
75438;BME280;64015;49.392;15.582;2022-10-16T04:23:35;95944.75;;;12.05;100.00
75438;BME280;64015;49.392;15.582;2022-10-16T04:26:00;95945.59;;;12.01;100.00
75438;BME280;64015;49.392;15.582;2022-10-16T04:28:27;95945.59;;;12.01;100.00
75438;BME280;64015;49.392;15.582;2022-10-16T04:30:52;95945.31;;;12.02;100.00
75438;BME280;64015;49.392;15.582;2022-10-16T04:33:18;95943.69;;;12.11;100.00
75438;BME280;64015;49.392;15.582;2022-10-16T04:35:44;95955.59;;;12.09;100.00
75438;BME280;64015;49.392;15.582;2022-10-16T04:38:09;95956.66;;;12.08;100.00
75438;BME280;64015;49.392;15.582;2022-10-16T04:40:35;95954.53;;;12.10;100.00
75438;BME280;64015;49.392;15.582;2022-10-16T04:43:05;95960.53;;;12.25;100.00
75438;BME280;64015;49.392;15.582;2022-10-16T04:45:31;95956.81;;;12.26;100.00
75438;BME280;64015;49.392;15.582;2022-10-16T04:47:57;95963.44;;;12.24;100.00
75438;BME280;64015;49.392;15.582;2022-10-16T04:50:23;95960.31;;;12.22;100.00
75438;BME280;64015;49.392;15.582;2022-10-16T04:52:49;95957.31;;;12.33;100.00
75438;BME280;64015;49.392;15.582;2022-10-16T04:55:14;95962.91;;;12.27;100.00
75438;BME280;64015;49.392;15.582;2022-10-16T04:57:40;95955.03;;;12.17;100.00
75438;BME280;64015;49.392;15.582;2022-10-16T05:00:06;95961.63;;;12.14;100.00
75438;BME280;64015;49.392;15.582;2022-10-16T05:02:33;95961.44;;;12.01;100.00
75438;BME280;64015;49.392;15.582;2022-10-16T05:04:59;95957.19;;;12.10;100.00
75438;BME280;64015;49.392;15.582;2022-10-16T05:07:24;95956.34;;;12.14;100.00
75438;BME280;64015;49.392;15.582;2022-10-16T05:09:50;95958.53;;;12.02;100.00
75438;BME280;64015;49.392;15.582;2022-10-16T05:12:15;95958.31;;;11.93;100.00
75438;BME280;64015;49.392;15.582;2022-10-16T05:14:41;95951.19;;;11.89;100.00
75438;BME280;64015;49.392;15.582;2022-10-16T05:17:06;95955.44;;;11.85;100.00
75438;BME280;64015;49.392;15.582;2022-10-16T05:19:32;95951.75;;;11.81;100.00
75438;BME280;64015;49.392;15.582;2022-10-16T05:21:58;95964.16;;;11.80;100.00
75438;BME280;64015;49.392;15.582;2022-10-16T05:24:24;95963.38;;;11.85;100.00
75438;BME280;64015;49.392;15.582;2022-10-16T05:26:50;95959.84;;;12.05;100.00
75438;BME280;64015;49.392;15.582;2022-10-16T05:29:15;95964.84;;;12.11;100.00
75438;BME280;64015;49.392;15.582;2022-10-16T05:31:41;95964.88;;;12.01;100.00
75438;BME280;64015;49.392;15.582;2022-10-16T05:34:07;95971.78;;;11.92;100.00
75438;BME280;64015;49.392;15.582;2022-10-16T05:36:32;95981.88;;;11.85;100.00
75438;BME280;64015;49.392;15.582;2022-10-16T05:38:58;95982.41;;;11.82;100.00
75438;BME280;64015;49.392;15.582;2022-10-16T05:41:23;95990.06;;;11.83;100.00
75438;BME280;64015;49.392;15.582;2022-10-16T05:43:55;95987.38;;;11.88;100.00
75438;BME280;64015;49.392;15.582;2022-10-16T05:46:20;95993.22;;;11.90;100.00
75438;BME280;64015;49.392;15.582;2022-10-16T05:48:46;96000.06;;;11.91;100.00
75438;BME280;64015;49.392;15.582;2022-10-16T05:51:13;96007.75;;;11.93;100.00
75438;BME280;64015;49.392;15.582;2022-10-16T05:53:40;96008.78;;;11.97;100.00
75438;BME280;64015;49.392;15.582;2022-10-16T05:56:08;96010.34;;;12.03;100.00
75438;BME280;64015;49.392;15.582;2022-10-16T05:58:36;96010.59;;;12.12;100.00
75438;BME280;64015;49.392;15.582;2022-10-16T06:01:06;96006.31;;;12.21;100.00
75438;BME280;64015;49.392;15.582;2022-10-16T06:03:32;96018.72;;;12.25;100.00
75438;BME280;64015;49.392;15.582;2022-10-16T06:05:58;96020.31;;;12.26;100.00
75438;BME280;64015;49.392;15.582;2022-10-16T06:08:26;96024.00;;;12.25;100.00
75438;BME280;64015;49.392;15.582;2022-10-16T06:11:04;96026.91;;;12.24;100.00
75438;BME280;64015;49.392;15.582;2022-10-16T06:13:30;96032.72;;;12.26;100.00
75438;BME280;64015;49.392;15.582;2022-10-16T06:15:58;96030.63;;;12.28;100.00
75438;BME280;64015;49.392;15.582;2022-10-16T06:18:26;96024.75;;;12.36;100.00
75438;BME280;64015;49.392;15.582;2022-10-16T06:20:52;96034.25;;;12.42;100.00
75438;BME280;64015;49.392;15.582;2022-10-16T06:23:18;96025.25;;;12.48;100.00
75438;BME280;64015;49.392;15.582;2022-10-16T06:25:44;96034.72;;;12.54;100.00
75438;BME280;64015;49.392;15.582;2022-10-16T06:28:09;96041.03;;;12.68;100.00
75438;BME280;64015;49.392;15.582;2022-10-16T06:30:34;96036.47;;;12.74;100.00
75438;BME280;64015;49.392;15.582;2022-10-16T06:33:00;96040.19;;;12.78;100.00
75438;BME280;64015;49.392;15.582;2022-10-16T06:35:25;96043.03;;;12.87;100.00
75438;BME280;64015;49.392;15.582;2022-10-16T06:37:53;96049.88;;;12.93;100.00
75438;BME280;64015;49.392;15.582;2022-10-16T06:40:18;96052.19;;;13.04;100.00
75438;BME280;64015;49.392;15.582;2022-10-16T06:42:44;96055.06;;;13.08;100.00
75438;BME280;64015;49.392;15.582;2022-10-16T06:45:10;96054.50;;;13.16;100.00
75438;BME280;64015;49.392;15.582;2022-10-16T06:47:35;96058.72;;;13.17;100.00
75438;BME280;64015;49.392;15.582;2022-10-16T06:50:01;96063.44;;;13.25;100.00
75438;BME280;64015;49.392;15.582;2022-10-16T06:52:29;96065.53;;;13.33;100.00
75438;BME280;64015;49.392;15.582;2022-10-16T06:54:55;96067.56;;;13.41;100.00
75438;BME280;64015;49.392;15.582;2022-10-16T06:57:20;96081.56;;;13.47;100.00
75438;BME280;64015;49.392;15.582;2022-10-16T06:59:46;96096.13;;;13.50;100.00
75438;BME280;64015;49.392;15.582;2022-10-16T07:02:11;96098.13;;;13.63;100.00
75438;BME280;64015;49.392;15.582;2022-10-16T07:04:37;96095.63;;;13.76;100.00
75438;BME280;64015;49.392;15.582;2022-10-16T07:07:02;96097.03;;;13.98;100.00
75438;BME280;64015;49.392;15.582;2022-10-16T07:09:28;96103.59;;;14.05;100.00
75438;BME280;64015;49.392;15.582;2022-10-16T07:11:55;96094.47;;;14.16;100.00
75438;BME280;64015;49.392;15.582;2022-10-16T07:14:21;96092.44;;;14.08;100.00
75438;BME280;64015;49.392;15.582;2022-10-16T07:16:47;96097.16;;;14.11;100.00
75438;BME280;64015;49.392;15.582;2022-10-16T07:19:14;96103.72;;;14.19;100.00
75438;BME280;64015;49.392;15.582;2022-10-16T07:21:41;96093.84;;;14.25;100.00
75438;BME280;64015;49.392;15.582;2022-10-16T07:24:14;96086.09;;;14.28;100.00
75438;BME280;64015;49.392;15.582;2022-10-16T07:26:42;96095.81;;;14.38;100.00
75438;BME280;64015;49.392;15.582;2022-10-16T07:29:13;96093.94;;;14.38;100.00
75438;BME280;64015;49.392;15.582;2022-10-16T07:31:39;96100.53;;;14.46;100.00
75438;BME280;64015;49.392;15.582;2022-10-16T07:34:05;96103.13;;;14.51;100.00
75438;BME280;64015;49.392;15.582;2022-10-16T07:36:35;96109.94;;;14.57;100.00
75438;BME280;64015;49.392;15.582;2022-10-16T07:39:01;96120.28;;;14.59;100.00
75438;BME280;64015;49.392;15.582;2022-10-16T07:41:27;96123.22;;;14.57;100.00
75438;BME280;64015;49.392;15.582;2022-10-16T07:43:54;96122.41;;;14.62;100.00
75438;BME280;64015;49.392;15.582;2022-10-16T07:46:21;96124.13;;;14.71;100.00
75438;BME280;64015;49.392;15.582;2022-10-16T07:48:47;96120.34;;;14.77;100.00
75438;BME280;64015;49.392;15.582;2022-10-16T07:51:23;96117.63;;;14.82;100.00
75438;BME280;64015;49.392;15.582;2022-10-16T07:53:49;96113.78;;;14.70;100.00
75438;BME280;64015;49.392;15.582;2022-10-16T07:56:17;96108.56;;;14.83;100.00
75438;BME280;64015;49.392;15.582;2022-10-16T07:58:43;96108.38;;;14.80;100.00
75438;BME280;64015;49.392;15.582;2022-10-16T08:01:11;96124.72;;;14.87;100.00
75438;BME280;64015;49.392;15.582;2022-10-16T08:03:38;96122.59;;;14.89;100.00
75438;BME280;64015;49.392;15.582;2022-10-16T08:06:04;96125.63;;;15.01;99.17
75438;BME280;64015;49.392;15.582;2022-10-16T08:08:30;96129.78;;;15.07;98.27
75438;BME280;64015;49.392;15.582;2022-10-16T08:10:55;96135.31;;;15.11;97.74
75438;BME280;64015;49.392;15.582;2022-10-16T08:13:21;96132.59;;;15.16;97.87
75438;BME280;64015;49.392;15.582;2022-10-16T08:15:47;96135.41;;;15.24;96.94
75438;BME280;64015;49.392;15.582;2022-10-16T08:18:14;96131.53;;;15.36;98.14
75438;BME280;64015;49.392;15.582;2022-10-16T08:20:41;96127.50;;;15.38;96.70
75438;BME280;64015;49.392;15.582;2022-10-16T08:23:09;96139.06;;;15.47;96.21
75438;BME280;64015;49.392;15.582;2022-10-16T08:25:36;96140.31;;;15.55;94.31
75438;BME280;64015;49.392;15.582;2022-10-16T08:28:06;96137.66;;;15.55;91.95
75438;BME280;64015;49.392;15.582;2022-10-16T08:30:33;96136.97;;;15.44;93.52
75438;BME280;64015;49.392;15.582;2022-10-16T08:32:59;96140.63;;;15.48;93.46
75438;BME280;64015;49.392;15.582;2022-10-16T08:35:24;96143.59;;;15.65;92.81
75438;BME280;64015;49.392;15.582;2022-10-16T08:37:50;96146.94;;;15.90;91.94
75438;BME280;64015;49.392;15.582;2022-10-16T08:40:22;96139.81;;;15.85;90.70
75438;BME280;64015;49.392;15.582;2022-10-16T08:48:39;96153.75;;;16.42;89.23
75438;BME280;64015;49.392;15.582;2022-10-16T08:51:18;96158.50;;;16.59;88.38
75438;BME280;64015;49.392;15.582;2022-10-16T08:53:57;96163.84;;;16.72;87.71
75438;BME280;64015;49.392;15.582;2022-10-16T08:56:24;96159.38;;;17.09;86.78
75438;BME280;64015;49.392;15.582;2022-10-16T08:58:52;96153.72;;;17.24;85.55
75438;BME280;64015;49.392;15.582;2022-10-16T09:01:19;96157.47;;;17.37;84.62
75438;BME280;64015;49.392;15.582;2022-10-16T09:06:46;96149.88;;;17.30;84.22
75438;BME280;64015;49.392;15.582;2022-10-16T09:14:58;96145.84;;;17.05;87.00
75438;BME280;64015;49.392;15.582;2022-10-16T09:17:46;96149.59;;;17.18;87.93
75438;BME280;64015;49.392;15.582;2022-10-16T09:22:46;96148.16;;;17.48;85.33
75438;BME280;64015;49.392;15.582;2022-10-16T09:25:14;96157.38;;;17.78;83.82
75438;BME280;64015;49.392;15.582;2022-10-16T09:27:40;96159.97;;;17.92;83.63
75438;BME280;64015;49.392;15.582;2022-10-16T09:30:15;96150.03;;;18.37;80.21
75438;BME280;64015;49.392;15.582;2022-10-16T09:32:43;96153.47;;;18.59;78.76
75438;BME280;64015;49.392;15.582;2022-10-16T09:35:32;96155.59;;;18.80;79.49
75438;BME280;64015;49.392;15.582;2022-10-16T09:38:00;96160.84;;;19.02;79.66
75438;BME280;64015;49.392;15.582;2022-10-16T09:42:57;96162.16;;;20.80;70.60
75438;BME280;64015;49.392;15.582;2022-10-16T09:45:24;96165.84;;;21.55;66.88
75438;BME280;64015;49.392;15.582;2022-10-16T09:47:49;96173.69;;;21.60;65.83
75438;BME280;64015;49.392;15.582;2022-10-16T09:50:27;96162.09;;;21.89;64.54
75438;BME280;64015;49.392;15.582;2022-10-16T09:53:03;96158.53;;;22.18;63.72
75438;BME280;64015;49.392;15.582;2022-10-16T09:55:30;96154.16;;;22.59;62.04
75438;BME280;64015;49.392;15.582;2022-10-16T09:57:55;96153.00;;;23.45;57.47
75438;BME280;64015;49.392;15.582;2022-10-16T10:00:22;96157.56;;;24.84;53.74
75438;BME280;64015;49.392;15.582;2022-10-16T10:02:48;96160.00;;;26.10;49.40
75438;BME280;64015;49.392;15.582;2022-10-16T10:05:40;96143.47;;;26.80;47.10
75438;BME280;64015;49.392;15.582;2022-10-16T10:08:06;96144.94;;;27.49;45.22
75438;BME280;64015;49.392;15.582;2022-10-16T10:10:38;96141.38;;;27.71;43.59
75438;BME280;64015;49.392;15.582;2022-10-16T10:13:17;96141.78;;;28.77;40.68
75438;BME280;64015;49.392;15.582;2022-10-16T10:15:43;96156.34;;;27.92;42.59
75438;BME280;64015;49.392;15.582;2022-10-16T10:18:19;96159.19;;;28.32;41.96
75438;BME280;64015;49.392;15.582;2022-10-16T10:20:56;96147.00;;;28.56;40.33
75438;BME280;64015;49.392;15.582;2022-10-16T10:23:24;96151.16;;;28.43;41.01
75438;BME280;64015;49.392;15.582;2022-10-16T10:28:53;96157.28;;;29.83;37.97
75438;BME280;64015;49.392;15.582;2022-10-16T10:31:27;96156.00;;;29.62;37.82
75438;BME280;64015;49.392;15.582;2022-10-16T10:36:37;96163.19;;;26.77;44.81
75438;BME280;64015;49.392;15.582;2022-10-16T10:39:23;96157.44;;;25.97;47.32
75438;BME280;64015;49.392;15.582;2022-10-16T10:44:57;96162.38;;;24.59;52.95
75438;BME280;64015;49.392;15.582;2022-10-16T10:55:54;96180.31;;;22.38;60.10
75438;BME280;64015;49.392;15.582;2022-10-16T10:58:35;96175.47;;;21.98;62.08
75438;BME280;64015;49.392;15.582;2022-10-16T11:01:16;96181.75;;;21.60;63.48
75438;BME280;64015;49.392;15.582;2022-10-16T11:04:25;96184.25;;;21.07;65.32
75438;BME280;64015;49.392;15.582;2022-10-16T11:07:00;96182.97;;;20.83;66.20
75438;BME280;64015;49.392;15.582;2022-10-16T11:09:48;96177.72;;;20.40;67.86
75438;BME280;64015;49.392;15.582;2022-10-16T11:12:29;96164.41;;;19.97;69.59
75438;BME280;64015;49.392;15.582;2022-10-16T11:15:04;96162.84;;;19.70;70.83
75438;BME280;64015;49.392;15.582;2022-10-16T11:17:40;96165.66;;;19.48;71.17
75438;BME280;64015;49.392;15.582;2022-10-16T11:23:04;96182.50;;;19.66;71.08
75438;BME280;64015;49.392;15.582;2022-10-16T11:25:33;96176.97;;;20.23;69.12
75438;BME280;64015;49.392;15.582;2022-10-16T11:28:31;96181.22;;;20.79;66.81
75438;BME280;64015;49.392;15.582;2022-10-16T11:30:57;96194.06;;;21.41;62.86
75438;BME280;64015;49.392;15.582;2022-10-16T11:38:52;96160.53;;;26.57;45.26
75438;BME280;64015;49.392;15.582;2022-10-16T11:41:27;96153.09;;;28.83;40.47
75438;BME280;64015;49.392;15.582;2022-10-16T11:46:31;96146.38;;;29.86;36.48
75438;BME280;64015;49.392;15.582;2022-10-16T11:49:04;96152.09;;;30.54;35.67
75438;BME280;64015;49.392;15.582;2022-10-16T11:51:42;96144.34;;;30.84;35.23
75438;BME280;64015;49.392;15.582;2022-10-16T11:56:49;96139.66;;;31.06;34.83
75438;BME280;64015;49.392;15.582;2022-10-16T12:04:53;96149.22;;;31.99;32.85
75438;BME280;64015;49.392;15.582;2022-10-16T12:07:27;96149.59;;;32.01;32.77
75438;BME280;64015;49.392;15.582;2022-10-16T12:09:58;96155.56;;;32.58;32.19
75438;BME280;64015;49.392;15.582;2022-10-16T12:12:38;96160.84;;;32.87;30.87
75438;BME280;64015;49.392;15.582;2022-10-16T12:17:49;96160.22;;;33.17;30.76
75438;BME280;64015;49.392;15.582;2022-10-16T12:20:26;96165.53;;;32.86;31.03
75438;BME280;64015;49.392;15.582;2022-10-16T12:22:58;96160.31;;;33.06;30.85
75438;BME280;64015;49.392;15.582;2022-10-16T12:27:55;96177.56;;;32.30;32.26
75438;BME280;64015;49.392;15.582;2022-10-16T12:30:26;96184.06;;;32.54;31.88
75438;BME280;64015;49.392;15.582;2022-10-16T12:32:54;96172.78;;;32.52;31.58
75438;BME280;64015;49.392;15.582;2022-10-16T12:35:26;96171.41;;;32.81;31.23
75438;BME280;64015;49.392;15.582;2022-10-16T12:37:53;96163.28;;;32.78;31.18
75438;BME280;64015;49.392;15.582;2022-10-16T12:42:47;96160.09;;;32.83;31.48
75438;BME280;64015;49.392;15.582;2022-10-16T12:45:21;96160.16;;;32.72;31.24
75438;BME280;64015;49.392;15.582;2022-10-16T12:47:51;96160.38;;;32.99;30.88
75438;BME280;64015;49.392;15.582;2022-10-16T12:52:50;96159.59;;;32.98;30.98
75438;BME280;64015;49.392;15.582;2022-10-16T12:55:17;96169.16;;;33.24;30.11
75438;BME280;64015;49.392;15.582;2022-10-16T13:00:52;96183.25;;;32.60;31.85
75438;BME280;64015;49.392;15.582;2022-10-16T13:03:48;96188.44;;;32.41;31.98
75438;BME280;64015;49.392;15.582;2022-10-16T13:06:41;96178.69;;;32.36;32.27
75438;BME280;64015;49.392;15.582;2022-10-16T13:09:32;96188.97;;;32.04;32.51
75438;BME280;64015;49.392;15.582;2022-10-16T13:14:55;96194.47;;;31.93;32.91
75438;BME280;64015;49.392;15.582;2022-10-16T13:18:29;96202.75;;;31.08;33.86
75438;BME280;64015;49.392;15.582;2022-10-16T13:20:39;96214.44;;;31.23;33.70
75438;BME280;64015;49.392;15.582;2022-10-16T13:23:15;96207.44;;;31.07;33.95
75438;BME280;64015;49.392;15.582;2022-10-16T13:28:40;96212.06;;;31.42;33.49
75438;BME280;64015;49.392;15.582;2022-10-16T13:31:10;96205.06;;;31.48;33.14
75438;BME280;64015;49.392;15.582;2022-10-16T13:33:41;96208.19;;;31.50;33.26
75438;BME280;64015;49.392;15.582;2022-10-16T13:36:45;96205.44;;;31.61;32.99
75438;BME280;64015;49.392;15.582;2022-10-16T13:39:25;96208.16;;;30.90;34.33
75438;BME280;64015;49.392;15.582;2022-10-16T13:44:26;96201.13;;;30.57;34.82
75438;BME280;64015;49.392;15.582;2022-10-16T13:47:01;96206.97;;;30.77;34.80
75438;BME280;64015;49.392;15.582;2022-10-16T13:49:27;96211.56;;;30.48;35.54
75438;BME280;64015;49.392;15.582;2022-10-16T13:51:57;96204.06;;;30.10;35.94
75438;BME280;64015;49.392;15.582;2022-10-16T13:54:24;96209.44;;;29.99;36.02
75438;BME280;64015;49.392;15.582;2022-10-16T13:56:50;96205.44;;;29.24;37.82
75438;BME280;64015;49.392;15.582;2022-10-16T13:59:24;96207.97;;;29.47;37.70
75438;BME280;64015;49.392;15.582;2022-10-16T14:01:55;96197.66;;;28.08;40.04
75438;BME280;64015;49.392;15.582;2022-10-16T14:04:21;96205.16;;;26.90;43.16
75438;BME280;64015;49.392;15.582;2022-10-16T14:06:50;96205.97;;;25.90;45.50
75438;BME280;64015;49.392;15.582;2022-10-16T14:11:55;96213.66;;;24.31;50.46
75438;BME280;64015;49.392;15.582;2022-10-16T14:14:22;96221.69;;;23.27;53.80
75438;BME280;64015;49.392;15.582;2022-10-16T14:16:48;96216.03;;;22.38;56.39
75438;BME280;64015;49.392;15.582;2022-10-16T14:19:28;96227.22;;;21.66;59.13
75438;BME280;64015;49.392;15.582;2022-10-16T14:21:55;96220.78;;;20.91;61.69
75438;BME280;64015;49.392;15.582;2022-10-16T14:26:51;96216.06;;;19.81;67.50